createdAt,value
2023-01-04T00:01:04.124Z,9.10
2023-01-04T00:03:33.002Z,9.20
2023-01-04T00:06:02.417Z,9.20
2023-01-04T00:08:32.315Z,9.50
2023-01-04T00:11:02.785Z,9.40
2023-01-04T00:13:31.393Z,9.40
2023-01-04T00:16:07.249Z,9.20
2023-01-04T00:18:37.242Z,9.40
2023-01-04T00:21:10.121Z,9.20
2023-01-04T00:23:40.578Z,9.20
2023-01-04T00:26:09.844Z,9.10
2023-01-04T00:28:38.237Z,9.10
2023-01-04T00:31:07.844Z,9.20
2023-01-04T00:33:36.319Z,9.10
2023-01-04T00:36:06.413Z,9.10
2023-01-04T00:38:35.219Z,9.20
2023-01-04T00:41:06.069Z,9.50
2023-01-04T00:43:34.317Z,9.20
2023-01-04T00:46:02.755Z,9.20
2023-01-04T00:48:31.468Z,9.00
2023-01-04T00:51:00.218Z,9.20
2023-01-04T00:53:28.606Z,9.30
2023-01-04T00:56:01.638Z,9.10
2023-01-04T00:58:31.212Z,9.10
2023-01-04T01:01:06.297Z,9.20
2023-01-04T01:03:38.455Z,9.20
2023-01-04T01:06:09.250Z,9.10
2023-01-04T01:08:37.801Z,9.00
2023-01-04T01:11:07.856Z,9.00
2023-01-04T01:13:41.147Z,9.10
2023-01-04T01:16:11.954Z,9.00
2023-01-04T01:18:41.614Z,9.20
2023-01-04T01:21:12.069Z,9.30
2023-01-04T01:23:41.350Z,9.30
2023-01-04T01:26:11.717Z,9.40
2023-01-04T01:28:41.304Z,9.50
2023-01-04T01:31:10.451Z,9.30
2023-01-04T01:33:39.228Z,9.30
2023-01-04T01:36:08.859Z,9.20
2023-01-04T01:38:37.938Z,9.30
2023-01-04T01:41:07.641Z,9.20
2023-01-04T01:43:52.548Z,9.30
2023-01-04T01:46:27.866Z,9.30
2023-01-04T01:49:01.809Z,9.20
2023-01-04T01:51:31.213Z,9.20
2023-01-04T01:54:05.572Z,9.10
2023-01-04T01:56:37.740Z,9.30
2023-01-04T01:59:08.046Z,9.30
2023-01-04T02:01:36.523Z,9.40
2023-01-04T02:04:05.655Z,9.20
2023-01-04T02:06:36.669Z,9.20
2023-01-04T02:09:05.248Z,9.00
2023-01-04T02:11:34.354Z,9.10
2023-01-04T02:14:24.206Z,9.20
2023-01-04T02:17:06.281Z,9.20
2023-01-04T02:20:10.534Z,9.20
2023-01-04T02:23:15.809Z,9.20
2023-01-04T02:26:28.781Z,9.30
2023-01-04T02:29:26.659Z,9.10
2023-01-04T02:31:58.886Z,9.10
2023-01-04T02:34:34.771Z,9.10
2023-01-04T02:37:10.325Z,9.10
2023-01-04T02:39:47.999Z,8.80
2023-01-04T02:42:25.474Z,9.00
2023-01-04T02:44:57.488Z,8.80
2023-01-04T02:48:02.661Z,9.00
2023-01-04T02:50:33.659Z,9.00
2023-01-04T02:53:03.922Z,8.90
2023-01-04T02:55:41.821Z,8.90
2023-01-04T02:58:16.430Z,8.90
2023-01-04T03:01:12.105Z,8.90
2023-01-04T03:04:11.245Z,8.80
2023-01-04T03:06:44.857Z,8.60
2023-01-04T03:09:16.665Z,8.60
2023-01-04T03:12:04.947Z,8.50
2023-01-04T03:14:38.309Z,8.70
2023-01-04T03:17:12.555Z,8.80
2023-01-04T03:19:54.939Z,8.80
2023-01-04T03:22:48.508Z,8.90
2023-01-04T03:25:36.860Z,9.00
2023-01-04T03:28:24.495Z,8.80
2023-01-04T03:31:16.783Z,8.80
2023-01-04T03:34:02.765Z,8.90
2023-01-04T03:36:45.341Z,8.90
2023-01-04T03:39:38.753Z,8.70
2023-01-04T03:42:32.909Z,8.60
2023-01-04T03:45:29.880Z,9.00
2023-01-04T03:48:21.215Z,9.00
2023-01-04T03:50:56.351Z,9.10
2023-01-04T03:53:27.704Z,9.20
2023-01-04T03:55:57.433Z,9.00
2023-01-04T03:58:26.322Z,8.90
2023-01-04T04:00:54.667Z,9.00
2023-01-04T04:03:23.031Z,8.80
2023-01-04T04:06:08.711Z,9.00
2023-01-04T04:08:38.250Z,8.70
2023-01-04T04:11:20.284Z,8.90
2023-01-04T04:13:49.053Z,8.80
2023-01-04T04:16:19.138Z,8.80
2023-01-04T04:18:48.136Z,9.00
2023-01-04T04:21:16.327Z,8.90
2023-01-04T04:23:46.129Z,8.80
2023-01-04T04:26:14.288Z,8.80
2023-01-04T04:28:42.455Z,9.00
2023-01-04T04:31:11.133Z,9.00
2023-01-04T04:33:40.081Z,8.90
2023-01-04T04:36:09.613Z,8.50
2023-01-04T04:38:37.739Z,8.50
2023-01-04T04:41:31.084Z,8.40
2023-01-04T04:43:59.721Z,8.40
2023-01-04T04:46:27.970Z,8.50
2023-01-04T04:48:56.283Z,8.20
2023-01-04T04:51:24.748Z,8.40
2023-01-04T04:53:52.870Z,8.20
2023-01-04T04:56:22.508Z,8.20
2023-01-04T04:58:51.176Z,8.10
2023-01-04T05:01:20.050Z,7.90
2023-01-04T05:03:48.365Z,8.10
2023-01-04T05:06:16.545Z,8.10
2023-01-04T05:08:44.653Z,8.20
2023-01-04T05:11:14.089Z,8.20
2023-01-04T05:13:42.813Z,8.20
2023-01-04T05:16:11.485Z,8.10
2023-01-04T05:18:39.667Z,8.00
2023-01-04T05:21:07.809Z,7.80
2023-01-04T05:23:35.915Z,7.90
2023-01-04T05:26:05.103Z,7.90
2023-01-04T05:28:33.291Z,7.80
2023-01-04T05:31:01.859Z,7.90
2023-01-04T05:33:31.600Z,7.80
2023-01-04T05:36:01.681Z,7.70
2023-01-04T05:38:30.634Z,7.80
2023-01-04T05:40:58.795Z,7.90
2023-01-04T05:43:30.012Z,7.80
2023-01-04T05:45:58.405Z,7.90
2023-01-04T05:48:28.013Z,7.80
2023-01-04T05:50:56.200Z,8.20
2023-01-04T05:53:24.598Z,7.60
2023-01-04T05:55:52.813Z,7.80
2023-01-04T05:58:20.981Z,7.70
2023-01-04T06:00:49.161Z,7.90
2023-01-04T06:03:17.434Z,8.10
2023-01-04T06:05:50.586Z,7.80
2023-01-04T06:08:18.885Z,8.00
2023-01-04T06:10:52.953Z,7.60
2023-01-04T06:13:21.508Z,7.60
2023-01-04T06:15:49.630Z,7.90
2023-01-04T06:18:18.289Z,7.90
2023-01-04T06:20:47.867Z,7.60
2023-01-04T06:23:15.959Z,7.70
2023-01-04T06:25:44.713Z,7.80
2023-01-04T06:28:12.983Z,7.80
2023-01-04T06:30:42.113Z,7.90
2023-01-04T06:33:10.310Z,7.90
2023-01-04T06:35:38.485Z,8.00
2023-01-04T06:38:08.053Z,7.90
2023-01-04T06:40:36.149Z,7.90
2023-01-04T06:43:04.543Z,8.00
2023-01-04T06:45:32.740Z,8.10
2023-01-04T06:48:05.742Z,8.10
2023-01-04T06:50:37.385Z,8.30
2023-01-04T06:53:07.145Z,8.20
2023-01-04T06:55:35.515Z,8.20
2023-01-04T06:58:03.656Z,8.30
2023-01-04T07:00:31.797Z,8.20
2023-01-04T07:03:14.821Z,8.30
2023-01-04T07:05:43.949Z,8.20
2023-01-04T07:08:14.213Z,8.30
2023-01-04T07:10:42.843Z,8.10
2023-01-04T07:13:11.318Z,8.10
2023-01-04T07:15:40.824Z,8.10
2023-01-04T07:18:09.781Z,8.00
2023-01-04T07:20:38.356Z,8.10
2023-01-04T07:23:07.004Z,8.10
2023-01-04T07:25:37.269Z,8.10
2023-01-04T07:28:06.114Z,8.10
2023-01-04T07:30:34.324Z,8.10
2023-01-04T07:33:02.820Z,8.30
2023-01-04T07:35:31.044Z,8.30
2023-01-04T07:37:59.446Z,8.10
2023-01-04T07:40:28.325Z,8.10
2023-01-04T07:42:59.639Z,7.80
2023-01-04T07:45:28.601Z,7.90
2023-01-04T07:47:56.831Z,7.90
2023-01-04T07:50:24.964Z,8.00
2023-01-04T07:52:53.068Z,8.00
2023-01-04T07:55:21.260Z,8.10
2023-01-04T07:57:49.522Z,8.40
2023-01-04T08:00:19.641Z,8.40
2023-01-04T08:02:50.199Z,8.30
2023-01-04T08:05:18.469Z,8.20
2023-01-04T08:07:46.688Z,8.40
2023-01-04T08:10:14.884Z,8.30
2023-01-04T08:12:43.196Z,8.40
2023-01-04T08:15:12.080Z,8.50
2023-01-04T08:17:41.568Z,8.50
2023-01-04T08:20:10.411Z,8.40
2023-01-04T08:22:39.329Z,8.50
2023-01-04T08:25:09.870Z,8.60
2023-01-04T08:27:38.087Z,8.40
2023-01-04T08:30:07.353Z,8.40
2023-01-04T08:32:35.498Z,8.40
2023-01-04T08:35:05.777Z,8.60
2023-01-04T08:37:35.402Z,8.70
2023-01-04T08:40:03.811Z,8.50
2023-01-04T08:42:32.218Z,8.60
2023-01-04T08:45:01.722Z,8.60
2023-01-04T08:47:31.405Z,8.60
2023-01-04T08:50:04.866Z,8.60
2023-01-04T08:52:37.451Z,8.70
2023-01-04T08:55:12.336Z,8.70
2023-01-04T08:57:44.618Z,8.80
2023-01-04T09:00:13.905Z,8.80
2023-01-04T09:02:42.329Z,8.60
2023-01-04T09:05:10.928Z,8.40
2023-01-04T09:07:52.075Z,8.40
2023-01-04T09:10:20.219Z,8.50
2023-01-04T09:12:48.305Z,8.70
2023-01-04T09:15:17.554Z,8.70
2023-01-04T09:18:05.120Z,8.60
2023-01-04T09:20:33.871Z,8.70
2023-01-04T09:23:03.400Z,8.60
2023-01-04T09:25:31.558Z,8.80
2023-01-04T09:27:59.722Z,8.80
2023-01-04T09:30:28.047Z,8.70
2023-01-04T09:32:56.164Z,8.90
2023-01-04T09:35:24.282Z,8.70
2023-01-04T09:37:52.371Z,8.80
2023-01-04T09:40:28.582Z,8.90
2023-01-04T09:43:20.393Z,8.80
2023-01-04T09:45:46.927Z,9.00
2023-01-04T09:48:25.139Z,9.10
2023-01-04T09:50:59.633Z,8.90
2023-01-04T09:53:32.305Z,8.90
2023-01-04T09:56:10.888Z,9.00
2023-01-04T09:58:42.340Z,8.80
2023-01-04T10:01:15.798Z,8.90
2023-01-04T10:03:52.921Z,9.00
2023-01-04T10:06:21.247Z,9.10
2023-01-04T10:08:49.627Z,9.40
2023-01-04T10:11:32.804Z,9.60
2023-01-04T10:14:14.816Z,9.40
2023-01-04T10:17:14.230Z,9.70
2023-01-04T10:23:03.569Z,9.40
2023-01-04T10:25:40.287Z,9.40
2023-01-04T10:28:24.307Z,9.50
2023-01-04T10:31:00.362Z,9.80
2023-01-04T10:33:50.009Z,9.80
2023-01-04T10:36:22.732Z,9.80
2023-01-04T10:39:00.030Z,9.50
2023-01-04T10:41:32.052Z,9.40
2023-01-04T10:44:12.181Z,9.40
2023-01-04T10:46:47.298Z,9.50
2023-01-04T10:49:22.289Z,9.40
2023-01-04T10:51:58.002Z,9.50
2023-01-04T10:54:32.204Z,9.50
2023-01-04T10:57:07.158Z,9.40
2023-01-04T10:59:43.180Z,9.30
2023-01-04T11:02:20.463Z,9.30
2023-01-04T11:04:56.927Z,9.20
2023-01-04T11:07:29.568Z,9.30
2023-01-04T11:10:04.200Z,9.50
2023-01-04T11:12:32.639Z,9.70
2023-01-04T11:15:02.210Z,9.60
2023-01-04T11:17:33.345Z,9.70
2023-01-04T11:20:01.662Z,9.50
2023-01-04T11:22:35.362Z,9.50
2023-01-04T11:27:58.523Z,9.70
2023-01-04T11:30:33.491Z,9.80
2023-01-04T11:33:04.527Z,9.70
2023-01-04T11:35:42.778Z,9.90
2023-01-04T11:38:14.317Z,10.10
2023-01-04T11:40:43.155Z,10.10
2023-01-04T11:43:19.250Z,10.00
2023-01-04T11:46:03.440Z,9.90
2023-01-04T11:48:41.718Z,9.90
2023-01-04T11:51:34.276Z,10.10
2023-01-04T11:54:05.002Z,10.10
2023-01-04T11:56:34.216Z,10.10
2023-01-04T11:59:20.722Z,10.20
2023-01-04T12:02:42.203Z,10.20
2023-01-04T12:05:28.354Z,10.00
2023-01-04T12:07:57.797Z,10.10
2023-01-04T12:10:28.442Z,10.20
2023-01-04T12:12:58.005Z,9.90
2023-01-04T12:15:36.832Z,10.20
2023-01-04T12:18:12.084Z,10.30
2023-01-04T12:20:40.229Z,10.20
2023-01-04T12:23:09.684Z,10.20
2023-01-04T12:25:41.863Z,10.40
2023-01-04T12:28:30.041Z,10.50
2023-01-04T12:31:34.092Z,10.30
2023-01-04T12:34:46.692Z,10.40
2023-01-04T12:37:49.394Z,10.20
2023-01-04T12:40:56.124Z,10.10
2023-01-04T12:43:28.456Z,10.10
2023-01-04T12:46:59.155Z,10.20
2023-01-04T12:49:52.728Z,10.10
2023-01-04T12:55:58.341Z,10.00
2023-01-04T13:02:22.913Z,10.30
2023-01-04T13:05:09.682Z,10.50
2023-01-04T13:07:45.584Z,10.30
2023-01-04T13:10:32.289Z,10.40
2023-01-04T13:13:23.535Z,10.50
2023-01-04T13:16:02.382Z,10.60
2023-01-04T13:18:38.688Z,10.30
2023-01-04T13:21:13.571Z,10.30
2023-01-04T13:23:47.679Z,10.30
2023-01-04T13:26:30.136Z,10.20
2023-01-04T13:29:09.778Z,10.30
2023-01-04T13:31:46.850Z,10.40
2023-01-04T13:34:21.068Z,10.30
2023-01-04T13:36:57.714Z,10.50
2023-01-04T13:39:25.952Z,10.80
2023-01-04T13:41:54.823Z,10.70
2023-01-04T13:45:09.200Z,10.60
2023-01-04T13:47:24.851Z,10.60
2023-01-04T13:49:54.352Z,10.50
2023-01-04T13:52:48.663Z,10.60
2023-01-04T13:55:13.844Z,10.60
2023-01-04T13:57:54.176Z,10.60
2023-01-04T14:00:23.920Z,10.50
2023-01-04T14:03:14.911Z,10.50
2023-01-04T14:05:50.125Z,10.50
2023-01-04T14:08:22.635Z,10.60
2023-01-04T14:10:51.164Z,10.70
2023-01-04T14:13:21.158Z,10.50
2023-01-04T14:16:03.777Z,10.50
2023-01-04T14:18:32.528Z,10.60
2023-01-04T14:21:02.001Z,10.70
2023-01-04T14:23:35.492Z,10.80
2023-01-04T14:26:03.619Z,10.70
2023-01-04T14:28:46.994Z,10.70
2023-01-04T14:31:26.555Z,10.50
2023-01-04T14:33:55.141Z,10.70
2023-01-04T14:36:28.179Z,10.70
2023-01-04T14:39:10.950Z,10.80
2023-01-04T14:41:41.592Z,10.90
2023-01-04T14:44:15.561Z,10.90
2023-01-04T14:46:47.151Z,11.10
2023-01-04T14:49:17.326Z,11.00
2023-01-04T14:51:49.095Z,11.00
2023-01-04T14:54:24.300Z,11.00
2023-01-04T14:56:53.733Z,11.00
2023-01-04T14:59:24.369Z,11.00
2023-01-04T15:01:53.207Z,11.10
2023-01-04T15:04:21.556Z,11.10
2023-01-04T15:06:54.155Z,11.20
2023-01-04T15:09:22.413Z,11.00
2023-01-04T15:11:50.958Z,10.90
2023-01-04T15:14:19.086Z,10.80
2023-01-04T15:16:47.433Z,10.70
2023-01-04T15:19:16.105Z,10.80
2023-01-04T15:21:44.200Z,10.90
2023-01-04T15:24:13.732Z,10.80
2023-01-04T15:26:41.989Z,10.80
2023-01-04T15:29:10.260Z,11.10
2023-01-04T15:31:40.549Z,10.80
2023-01-04T15:34:10.351Z,10.60
2023-01-04T15:36:41.073Z,10.70
2023-01-04T15:39:12.644Z,10.90
2023-01-04T15:41:59.913Z,11.00
2023-01-04T15:44:28.435Z,10.90
2023-01-04T15:46:59.473Z,10.90
2023-01-04T15:49:29.822Z,10.80
2023-01-04T15:51:58.288Z,11.00
2023-01-04T15:54:26.873Z,10.80
2023-01-04T15:56:56.742Z,10.70
2023-01-04T15:59:25.731Z,10.80
2023-01-04T16:01:54.046Z,10.70
2023-01-04T16:04:22.375Z,10.80
2023-01-04T16:06:50.717Z,10.80
2023-01-04T16:09:18.922Z,10.90
2023-01-04T16:12:00.984Z,11.00
2023-01-04T16:14:30.676Z,11.00
2023-01-04T16:16:58.798Z,11.10
2023-01-04T16:19:27.601Z,11.00
2023-01-04T16:21:56.167Z,11.30
2023-01-04T16:27:12.554Z,11.20
2023-01-04T16:29:42.283Z,11.10
2023-01-04T16:32:10.421Z,11.10
2023-01-04T16:34:38.887Z,11.20
2023-01-04T16:37:07.071Z,11.10
2023-01-04T16:40:05.378Z,11.20
2023-01-04T16:42:23.974Z,11.40
2023-01-04T16:44:53.454Z,11.40
2023-01-04T16:47:21.570Z,11.30
2023-01-04T16:49:53.039Z,11.20
2023-01-04T16:52:21.447Z,11.50
2023-01-04T16:54:50.530Z,11.10
2023-01-04T16:57:18.645Z,11.00
2023-01-04T16:59:46.756Z,11.20
2023-01-04T17:02:16.358Z,11.20
2023-01-04T17:04:44.561Z,11.30
2023-01-04T17:07:12.678Z,11.10
2023-01-04T17:09:41.342Z,11.00
2023-01-04T17:17:47.067Z,11.10
2023-01-04T17:20:15.300Z,11.20
2023-01-04T17:22:43.445Z,11.30
2023-01-04T17:25:12.182Z,11.20
2023-01-04T17:27:40.775Z,11.10
2023-01-04T17:30:10.338Z,11.20
2023-01-04T17:32:38.472Z,11.30
2023-01-04T17:35:08.577Z,11.30
2023-01-04T17:37:36.682Z,11.40
2023-01-04T17:40:05.480Z,11.30
2023-01-04T17:42:33.873Z,11.30
2023-01-04T17:45:02.036Z,11.30
2023-01-04T17:47:30.147Z,11.30
2023-01-04T17:49:58.303Z,11.40
2023-01-04T17:52:31.355Z,11.20
2023-01-04T17:55:00.810Z,11.40
2023-01-04T17:57:31.152Z,11.30
2023-01-04T17:59:59.423Z,11.10
2023-01-04T18:02:28.265Z,11.30
2023-01-04T18:04:56.522Z,11.40
2023-01-04T18:07:25.424Z,11.40
2023-01-04T18:09:55.699Z,11.30
2023-01-04T18:12:23.872Z,11.30
2023-01-04T18:14:52.044Z,11.40
2023-01-04T18:17:20.300Z,11.40
2023-01-04T18:19:48.657Z,11.30
2023-01-04T18:22:17.052Z,11.40
2023-01-04T18:24:45.161Z,11.40
2023-01-04T18:27:24.894Z,11.40
2023-01-04T18:29:55.267Z,11.20
2023-01-04T18:32:24.429Z,11.10
2023-01-04T18:34:52.639Z,10.90
2023-01-04T18:37:20.777Z,11.10
2023-01-04T18:39:49.254Z,11.00
2023-01-04T18:42:18.943Z,11.10
2023-01-04T18:44:49.367Z,11.10
2023-01-04T18:47:19.712Z,11.20
2023-01-04T18:49:48.649Z,11.30
2023-01-04T18:52:17.250Z,11.10
2023-01-04T18:54:47.772Z,11.30
2023-01-04T18:57:15.990Z,11.20
2023-01-04T18:59:49.995Z,11.10
2023-01-04T19:02:20.682Z,11.00
2023-01-04T19:04:48.972Z,10.90
2023-01-04T19:07:17.173Z,11.10
2023-01-04T19:09:45.314Z,11.00
2023-01-04T19:12:13.741Z,11.10
2023-01-04T19:14:42.278Z,11.20
2023-01-04T19:17:12.458Z,11.20
2023-01-04T19:19:40.651Z,11.20
2023-01-04T19:22:08.834Z,11.10
2023-01-04T19:24:37.007Z,11.00
2023-01-04T19:27:05.438Z,11.10
2023-01-04T19:29:34.148Z,11.10
2023-01-04T19:32:02.655Z,11.00
2023-01-04T19:34:32.737Z,11.20
2023-01-04T19:37:01.064Z,11.00
2023-01-04T19:39:29.524Z,10.90
2023-01-04T19:41:57.779Z,10.90
2023-01-04T19:44:26.002Z,10.80
2023-01-04T19:46:54.140Z,10.80
2023-01-04T19:49:23.199Z,10.70
2023-01-04T19:51:52.668Z,10.70
2023-01-04T19:54:25.206Z,10.60
2023-01-04T19:56:54.495Z,10.50
2023-01-04T19:59:26.396Z,10.70
2023-01-04T20:01:54.635Z,10.80
2023-01-04T20:04:22.870Z,10.60
2023-01-04T20:06:52.376Z,10.70
2023-01-04T20:09:25.762Z,10.60
2023-01-04T20:11:54.463Z,10.80
2023-01-04T20:14:22.877Z,10.90
2023-01-04T20:16:51.154Z,10.80
2023-01-04T20:19:19.544Z,10.80
2023-01-04T20:21:47.743Z,10.80
2023-01-04T20:24:17.424Z,10.80
2023-01-04T20:26:46.538Z,10.80
2023-01-04T20:29:14.764Z,10.80
2023-01-04T20:31:45.756Z,10.80
2023-01-04T20:34:14.316Z,11.00
2023-01-04T20:36:42.724Z,11.10
2023-01-04T20:39:10.912Z,11.00
2023-01-04T20:42:01.663Z,10.90
2023-01-04T20:44:28.987Z,11.00
2023-01-04T20:46:57.170Z,11.00
2023-01-04T20:49:25.317Z,10.80
2023-01-04T20:51:56.642Z,10.80
2023-01-04T20:54:24.780Z,10.80
2023-01-04T20:56:54.231Z,10.90
2023-01-04T20:59:22.467Z,10.90
2023-01-04T21:01:50.775Z,11.10
2023-01-04T21:04:19.000Z,11.10
2023-01-04T21:06:47.137Z,11.30
2023-01-04T21:09:15.294Z,11.40
2023-01-04T21:11:43.634Z,11.40
2023-01-04T21:14:13.275Z,11.40
2023-01-04T21:16:41.985Z,11.60
2023-01-04T21:19:10.474Z,11.50
2023-01-04T21:21:39.226Z,11.50
2023-01-04T21:24:07.972Z,11.50
2023-01-04T21:26:36.093Z,11.50
2023-01-04T21:29:04.694Z,11.80
2023-01-04T21:31:34.332Z,11.70
2023-01-04T21:34:06.640Z,11.70
2023-01-04T21:36:37.620Z,11.80
2023-01-04T21:39:05.732Z,11.50
2023-01-04T21:41:33.918Z,11.50
2023-01-04T21:44:03.209Z,11.50
2023-01-04T21:46:31.412Z,11.50
2023-01-04T21:49:02.159Z,11.50
2023-01-04T21:51:31.129Z,11.30
2023-01-04T21:54:01.579Z,11.50
2023-01-04T21:56:31.497Z,11.40
2023-01-04T21:58:59.732Z,11.50
2023-01-04T22:01:34.785Z,11.50
2023-01-04T22:04:05.215Z,11.50
2023-01-04T22:06:37.370Z,11.50
2023-01-04T22:09:06.105Z,11.70
2023-01-04T22:11:34.359Z,11.70
2023-01-04T22:14:02.577Z,11.80
2023-01-04T22:16:30.741Z,11.60
2023-01-04T22:18:58.929Z,11.50
2023-01-04T22:21:28.465Z,11.40
2023-01-04T22:23:56.746Z,11.50
2023-01-04T22:26:24.996Z,11.60
2023-01-04T22:28:53.171Z,11.50
2023-01-04T22:31:21.364Z,11.50
2023-01-04T22:33:49.580Z,11.50
2023-01-04T22:36:22.972Z,11.60
2023-01-04T22:38:53.476Z,11.60
2023-01-04T22:41:23.102Z,11.60
2023-01-04T22:43:56.482Z,11.40
2023-01-04T22:46:25.461Z,11.50
2023-01-04T22:48:53.823Z,11.60
2023-01-04T22:51:23.355Z,11.60
2023-01-04T22:53:55.904Z,11.70
2023-01-04T22:56:24.520Z,11.80
2023-01-04T22:58:55.483Z,11.60
2023-01-04T23:01:25.470Z,11.60
2023-01-04T23:03:54.720Z,11.60
2023-01-04T23:06:23.817Z,11.80
2023-01-04T23:08:57.752Z,11.70
2023-01-04T23:11:26.646Z,11.70
2023-01-04T23:13:54.943Z,11.90
2023-01-04T23:16:29.511Z,11.80
2023-01-04T23:18:59.927Z,11.50
2023-01-04T23:21:28.078Z,11.40
2023-01-04T23:23:57.577Z,11.40
2023-01-04T23:26:27.333Z,11.40
2023-01-04T23:28:55.719Z,11.60
2023-01-04T23:31:26.033Z,11.60
2023-01-04T23:33:55.633Z,11.70
2023-01-04T23:36:26.100Z,11.60
2023-01-04T23:38:57.757Z,11.50
2023-01-04T23:41:44.454Z,11.50
2023-01-04T23:44:15.200Z,11.50
2023-01-04T23:46:43.815Z,11.70
2023-01-04T23:49:12.865Z,11.90
2023-01-04T23:51:42.675Z,11.80
2023-01-04T23:54:12.771Z,11.50
2023-01-04T23:56:43.743Z,11.60
2023-01-04T23:59:12.482Z,11.70
